sensor_id;sensor_type;location;lat;lon;timestamp;P1;durP1;ratioP1;P2;durP2;ratioP2
73266;SDS011;61495;53.400;7.608;2022-09-09T00:04:26;11.48;;;6.00;;
73266;SDS011;61495;53.400;7.608;2022-09-09T00:09:44;12.15;;;6.70;;
73266;SDS011;61495;53.400;7.608;2022-09-09T00:12:23;10.55;;;5.60;;
73266;SDS011;61495;53.400;7.608;2022-09-09T00:17:47;10.88;;;5.55;;
73266;SDS011;61495;53.400;7.608;2022-09-09T00:25:54;8.27;;;4.80;;
73266;SDS011;61495;53.400;7.608;2022-09-09T00:28:26;11.13;;;4.82;;
73266;SDS011;61495;53.400;7.608;2022-09-09T00:30:55;8.50;;;4.55;;
73266;SDS011;61495;53.400;7.608;2022-09-09T00:33:23;10.45;;;4.80;;
73266;SDS011;61495;53.400;7.608;2022-09-09T00:35:58;9.30;;;4.78;;
73266;SDS011;61495;53.400;7.608;2022-09-09T00:43:57;8.73;;;5.05;;
73266;SDS011;61495;53.400;7.608;2022-09-09T00:55:24;11.02;;;5.25;;
73266;SDS011;61495;53.400;7.608;2022-09-09T00:57:52;9.00;;;4.97;;
73266;SDS011;61495;53.400;7.608;2022-09-09T01:05:39;9.70;;;5.50;;
73266;SDS011;61495;53.400;7.608;2022-09-09T01:08:23;10.77;;;5.97;;
73266;SDS011;61495;53.400;7.608;2022-09-09T01:11:22;10.13;;;5.18;;
73266;SDS011;61495;53.400;7.608;2022-09-09T01:13:53;10.05;;;5.43;;
73266;SDS011;61495;53.400;7.608;2022-09-09T01:16:25;10.70;;;5.85;;
73266;SDS011;61495;53.400;7.608;2022-09-09T01:18:53;10.15;;;5.68;;
73266;SDS011;61495;53.400;7.608;2022-09-09T01:26:58;10.25;;;5.55;;
73266;SDS011;61495;53.400;7.608;2022-09-09T01:29:27;9.63;;;5.82;;
73266;SDS011;61495;53.400;7.608;2022-09-09T01:31:58;9.55;;;5.75;;
73266;SDS011;61495;53.400;7.608;2022-09-09T01:39:24;10.13;;;5.30;;
73266;SDS011;61495;53.400;7.608;2022-09-09T01:41:51;12.43;;;6.85;;
73266;SDS011;61495;53.400;7.608;2022-09-09T01:44:17;9.68;;;5.55;;
73266;SDS011;61495;53.400;7.608;2022-09-09T01:46:44;9.68;;;5.40;;
73266;SDS011;61495;53.400;7.608;2022-09-09T01:49:10;13.57;;;6.35;;
73266;SDS011;61495;53.400;7.608;2022-09-09T01:51:36;9.85;;;5.80;;
73266;SDS011;61495;53.400;7.608;2022-09-09T01:54:04;11.38;;;6.07;;
73266;SDS011;61495;53.400;7.608;2022-09-09T02:04:52;9.43;;;5.38;;
73266;SDS011;61495;53.400;7.608;2022-09-09T02:07:40;10.35;;;5.95;;
73266;SDS011;61495;53.400;7.608;2022-09-09T02:12:54;10.15;;;5.13;;
73266;SDS011;61495;53.400;7.608;2022-09-09T02:15:33;10.32;;;5.57;;
73266;SDS011;61495;53.400;7.608;2022-09-09T02:18:23;9.18;;;5.10;;
73266;SDS011;61495;53.400;7.608;2022-09-09T02:21:04;10.88;;;5.53;;
73266;SDS011;61495;53.400;7.608;2022-09-09T02:23:32;10.18;;;5.57;;
73266;SDS011;61495;53.400;7.608;2022-09-09T02:25:59;9.25;;;5.05;;
73266;SDS011;61495;53.400;7.608;2022-09-09T02:28:26;10.32;;;5.20;;
73266;SDS011;61495;53.400;7.608;2022-09-09T02:30:54;10.68;;;6.00;;
73266;SDS011;61495;53.400;7.608;2022-09-09T02:33:28;8.57;;;4.78;;
73266;SDS011;61495;53.400;7.608;2022-09-09T02:35:59;10.23;;;5.30;;
73266;SDS011;61495;53.400;7.608;2022-09-09T02:38:28;9.40;;;5.47;;
73266;SDS011;61495;53.400;7.608;2022-09-09T02:40:57;9.40;;;5.03;;
73266;SDS011;61495;53.400;7.608;2022-09-09T02:43:23;11.00;;;5.35;;
73266;SDS011;61495;53.400;7.608;2022-09-09T02:48:35;10.70;;;6.18;;
73266;SDS011;61495;53.400;7.608;2022-09-09T02:51:18;10.38;;;5.53;;
73266;SDS011;61495;53.400;7.608;2022-09-09T02:53:56;10.32;;;5.10;;
73266;SDS011;61495;53.400;7.608;2022-09-09T02:56:27;9.55;;;5.43;;
73266;SDS011;61495;53.400;7.608;2022-09-09T02:58:57;9.15;;;5.35;;
73266;SDS011;61495;53.400;7.608;2022-09-09T03:01:23;12.25;;;6.00;;
73266;SDS011;61495;53.400;7.608;2022-09-09T03:03:48;10.95;;;5.82;;
73266;SDS011;61495;53.400;7.608;2022-09-09T03:06:14;8.40;;;5.10;;
73266;SDS011;61495;53.400;7.608;2022-09-09T03:08:39;11.82;;;5.97;;
73266;SDS011;61495;53.400;7.608;2022-09-09T03:11:06;8.90;;;5.45;;
73266;SDS011;61495;53.400;7.608;2022-09-09T03:13:32;8.60;;;4.80;;
73266;SDS011;61495;53.400;7.608;2022-09-09T03:15:58;11.00;;;5.32;;
73266;SDS011;61495;53.400;7.608;2022-09-09T03:18:24;8.95;;;5.60;;
73266;SDS011;61495;53.400;7.608;2022-09-09T03:20:50;10.27;;;5.15;;
73266;SDS011;61495;53.400;7.608;2022-09-09T03:23:16;10.15;;;4.65;;
73266;SDS011;61495;53.400;7.608;2022-09-09T03:25:48;9.57;;;5.35;;
73266;SDS011;61495;53.400;7.608;2022-09-09T03:28:14;9.77;;;5.25;;
73266;SDS011;61495;53.400;7.608;2022-09-09T03:30:40;25.13;;;6.38;;
73266;SDS011;61495;53.400;7.608;2022-09-09T03:33:05;10.50;;;5.40;;
73266;SDS011;61495;53.400;7.608;2022-09-09T03:35:31;10.73;;;5.05;;
73266;SDS011;61495;53.400;7.608;2022-09-09T03:37:56;8.98;;;4.57;;
73266;SDS011;61495;53.400;7.608;2022-09-09T03:40:22;11.43;;;5.32;;
73266;SDS011;61495;53.400;7.608;2022-09-09T03:42:47;10.48;;;4.97;;
73266;SDS011;61495;53.400;7.608;2022-09-09T03:45:13;11.55;;;5.50;;
73266;SDS011;61495;53.400;7.608;2022-09-09T03:47:39;8.70;;;5.28;;
73266;SDS011;61495;53.400;7.608;2022-09-09T03:50:05;9.77;;;4.60;;
73266;SDS011;61495;53.400;7.608;2022-09-09T03:52:37;10.75;;;5.00;;
73266;SDS011;61495;53.400;7.608;2022-09-09T03:55:04;9.63;;;5.15;;
73266;SDS011;61495;53.400;7.608;2022-09-09T03:57:30;9.32;;;4.90;;
73266;SDS011;61495;53.400;7.608;2022-09-09T03:59:56;17.42;;;5.60;;
73266;SDS011;61495;53.400;7.608;2022-09-09T04:02:22;7.38;;;4.60;;
73266;SDS011;61495;53.400;7.608;2022-09-09T04:04:48;9.77;;;4.90;;
73266;SDS011;61495;53.400;7.608;2022-09-09T04:07:13;8.90;;;5.32;;
73266;SDS011;61495;53.400;7.608;2022-09-09T04:09:39;7.43;;;4.50;;
73266;SDS011;61495;53.400;7.608;2022-09-09T04:12:04;10.30;;;4.93;;
73266;SDS011;61495;53.400;7.608;2022-09-09T04:14:31;9.23;;;4.38;;
73266;SDS011;61495;53.400;7.608;2022-09-09T04:16:56;9.05;;;4.47;;
73266;SDS011;61495;53.400;7.608;2022-09-09T04:19:24;9.73;;;5.18;;
73266;SDS011;61495;53.400;7.608;2022-09-09T04:21:50;8.77;;;4.80;;
73266;SDS011;61495;53.400;7.608;2022-09-09T04:24:16;10.10;;;5.40;;
73266;SDS011;61495;53.400;7.608;2022-09-09T04:26:42;7.80;;;4.60;;
73266;SDS011;61495;53.400;7.608;2022-09-09T04:29:08;10.45;;;4.93;;
73266;SDS011;61495;53.400;7.608;2022-09-09T04:31:33;7.47;;;4.38;;
73266;SDS011;61495;53.400;7.608;2022-09-09T04:33:59;8.60;;;4.85;;
73266;SDS011;61495;53.400;7.608;2022-09-09T04:36:29;9.50;;;4.20;;
73266;SDS011;61495;53.400;7.608;2022-09-09T04:38:56;9.40;;;4.57;;
73266;SDS011;61495;53.400;7.608;2022-09-09T04:41:22;9.32;;;4.60;;
73266;SDS011;61495;53.400;7.608;2022-09-09T04:43:47;11.10;;;4.43;;
73266;SDS011;61495;53.400;7.608;2022-09-09T04:46:12;9.52;;;4.32;;
73266;SDS011;61495;53.400;7.608;2022-09-09T04:48:38;8.07;;;4.35;;
73266;SDS011;61495;53.400;7.608;2022-09-09T04:51:04;8.75;;;4.38;;
73266;SDS011;61495;53.400;7.608;2022-09-09T04:53:31;8.48;;;4.35;;
73266;SDS011;61495;53.400;7.608;2022-09-09T04:58:29;9.52;;;5.10;;
73266;SDS011;61495;53.400;7.608;2022-09-09T05:00:55;9.57;;;4.35;;
73266;SDS011;61495;53.400;7.608;2022-09-09T05:03:28;8.93;;;4.60;;
73266;SDS011;61495;53.400;7.608;2022-09-09T05:05:53;7.57;;;4.07;;
73266;SDS011;61495;53.400;7.608;2022-09-09T05:08:19;9.07;;;4.78;;
73266;SDS011;61495;53.400;7.608;2022-09-09T05:10:45;10.00;;;4.13;;
73266;SDS011;61495;53.400;7.608;2022-09-09T05:13:11;9.13;;;4.10;;
73266;SDS011;61495;53.400;7.608;2022-09-09T05:15:36;8.07;;;4.88;;
73266;SDS011;61495;53.400;7.608;2022-09-09T05:18:02;8.95;;;5.22;;
73266;SDS011;61495;53.400;7.608;2022-09-09T05:20:28;8.48;;;4.28;;
73266;SDS011;61495;53.400;7.608;2022-09-09T05:22:54;8.65;;;4.85;;
73266;SDS011;61495;53.400;7.608;2022-09-09T05:25:21;9.13;;;4.80;;
73266;SDS011;61495;53.400;7.608;2022-09-09T05:27:49;8.73;;;4.70;;
73266;SDS011;61495;53.400;7.608;2022-09-09T05:30:14;9.85;;;4.50;;
73266;SDS011;61495;53.400;7.608;2022-09-09T05:32:40;9.98;;;4.38;;
73266;SDS011;61495;53.400;7.608;2022-09-09T05:35:06;8.82;;;4.43;;
73266;SDS011;61495;53.400;7.608;2022-09-09T05:37:31;9.45;;;4.18;;
73266;SDS011;61495;53.400;7.608;2022-09-09T05:39:56;9.38;;;4.10;;
73266;SDS011;61495;53.400;7.608;2022-09-09T05:42:22;5.38;;;2.92;;
73266;SDS011;61495;53.400;7.608;2022-09-09T05:44:48;5.35;;;3.30;;
73266;SDS011;61495;53.400;7.608;2022-09-09T05:47:13;5.47;;;2.80;;
73266;SDS011;61495;53.400;7.608;2022-09-09T05:49:40;5.45;;;3.03;;
73266;SDS011;61495;53.400;7.608;2022-09-09T05:52:05;5.57;;;2.40;;
73266;SDS011;61495;53.400;7.608;2022-09-09T05:54:31;4.22;;;2.05;;
73266;SDS011;61495;53.400;7.608;2022-09-09T05:56:57;4.95;;;2.35;;
73266;SDS011;61495;53.400;7.608;2022-09-09T05:59:23;4.93;;;2.00;;
73266;SDS011;61495;53.400;7.608;2022-09-09T06:01:48;4.97;;;1.90;;
73266;SDS011;61495;53.400;7.608;2022-09-09T06:04:13;4.15;;;1.73;;
73266;SDS011;61495;53.400;7.608;2022-09-09T06:06:40;6.40;;;2.30;;
73266;SDS011;61495;53.400;7.608;2022-09-09T06:09:07;5.07;;;1.92;;
73266;SDS011;61495;53.400;7.608;2022-09-09T06:11:36;5.53;;;2.10;;
73266;SDS011;61495;53.400;7.608;2022-09-09T06:14:04;5.97;;;1.77;;
73266;SDS011;61495;53.400;7.608;2022-09-09T06:16:30;5.40;;;1.70;;
73266;SDS011;61495;53.400;7.608;2022-09-09T06:18:57;6.00;;;1.90;;
73266;SDS011;61495;53.400;7.608;2022-09-09T06:21:25;5.15;;;2.22;;
73266;SDS011;61495;53.400;7.608;2022-09-09T06:23:52;5.03;;;2.10;;
73266;SDS011;61495;53.400;7.608;2022-09-09T06:26:19;4.68;;;1.70;;
73266;SDS011;61495;53.400;7.608;2022-09-09T06:28:51;5.22;;;2.00;;
73266;SDS011;61495;53.400;7.608;2022-09-09T06:31:18;4.07;;;1.73;;
73266;SDS011;61495;53.400;7.608;2022-09-09T06:33:49;4.03;;;2.10;;
73266;SDS011;61495;53.400;7.608;2022-09-09T06:36:17;5.07;;;2.30;;
73266;SDS011;61495;53.400;7.608;2022-09-09T06:38:44;5.57;;;2.55;;
73266;SDS011;61495;53.400;7.608;2022-09-09T06:41:12;5.63;;;2.40;;
73266;SDS011;61495;53.400;7.608;2022-09-09T06:43:39;5.65;;;2.55;;
73266;SDS011;61495;53.400;7.608;2022-09-09T06:46:06;4.93;;;2.13;;
73266;SDS011;61495;53.400;7.608;2022-09-09T06:48:34;5.75;;;2.80;;
73266;SDS011;61495;53.400;7.608;2022-09-09T06:51:05;6.75;;;3.22;;
73266;SDS011;61495;53.400;7.608;2022-09-09T06:53:36;5.13;;;2.83;;
73266;SDS011;61495;53.400;7.608;2022-09-09T06:58:37;7.13;;;2.85;;
73266;SDS011;61495;53.400;7.608;2022-09-09T07:01:12;5.78;;;3.03;;
73266;SDS011;61495;53.400;7.608;2022-09-09T07:03:41;6.18;;;2.88;;
73266;SDS011;61495;53.400;7.608;2022-09-09T07:06:08;4.90;;;2.63;;
73266;SDS011;61495;53.400;7.608;2022-09-09T07:09:02;5.05;;;2.85;;
73266;SDS011;61495;53.400;7.608;2022-09-09T07:11:39;6.13;;;3.00;;
73266;SDS011;61495;53.400;7.608;2022-09-09T07:14:08;5.82;;;2.90;;
73266;SDS011;61495;53.400;7.608;2022-09-09T07:16:39;5.93;;;2.85;;
73266;SDS011;61495;53.400;7.608;2022-09-09T07:19:07;5.90;;;3.05;;
73266;SDS011;61495;53.400;7.608;2022-09-09T07:21:33;5.38;;;2.85;;
73266;SDS011;61495;53.400;7.608;2022-09-09T07:23:59;7.18;;;3.30;;
73266;SDS011;61495;53.400;7.608;2022-09-09T07:26:27;5.88;;;2.80;;
73266;SDS011;61495;53.400;7.608;2022-09-09T07:28:54;5.03;;;2.60;;
73266;SDS011;61495;53.400;7.608;2022-09-09T07:31:26;6.03;;;2.70;;
73266;SDS011;61495;53.400;7.608;2022-09-09T07:34:01;6.60;;;2.83;;
73266;SDS011;61495;53.400;7.608;2022-09-09T07:36:32;5.00;;;2.88;;
73266;SDS011;61495;53.400;7.608;2022-09-09T07:39:03;6.28;;;2.67;;
73266;SDS011;61495;53.400;7.608;2022-09-09T07:41:32;7.30;;;3.03;;
73266;SDS011;61495;53.400;7.608;2022-09-09T07:44:03;7.75;;;2.80;;
73266;SDS011;61495;53.400;7.608;2022-09-09T07:46:31;5.45;;;2.75;;
73266;SDS011;61495;53.400;7.608;2022-09-09T07:48:57;5.45;;;2.67;;
73266;SDS011;61495;53.400;7.608;2022-09-09T07:51:28;6.18;;;2.80;;
73266;SDS011;61495;53.400;7.608;2022-09-09T07:53:56;6.85;;;3.10;;
73266;SDS011;61495;53.400;7.608;2022-09-09T07:56:24;4.55;;;2.28;;
73266;SDS011;61495;53.400;7.608;2022-09-09T07:58:51;5.13;;;2.40;;
73266;SDS011;61495;53.400;7.608;2022-09-09T08:01:19;4.82;;;2.40;;
73266;SDS011;61495;53.400;7.608;2022-09-09T08:04:08;6.50;;;3.33;;
73266;SDS011;61495;53.400;7.608;2022-09-09T08:06:43;5.53;;;2.65;;
73266;SDS011;61495;53.400;7.608;2022-09-09T08:09:11;5.82;;;2.28;;
73266;SDS011;61495;53.400;7.608;2022-09-09T08:11:37;7.32;;;2.88;;
73266;SDS011;61495;53.400;7.608;2022-09-09T08:14:04;5.43;;;2.38;;
73266;SDS011;61495;53.400;7.608;2022-09-09T08:16:31;6.07;;;2.47;;
73266;SDS011;61495;53.400;7.608;2022-09-09T08:18:58;4.78;;;2.75;;
73266;SDS011;61495;53.400;7.608;2022-09-09T08:21:28;4.88;;;2.83;;
73266;SDS011;61495;53.400;7.608;2022-09-09T08:23:56;4.50;;;2.67;;
73266;SDS011;61495;53.400;7.608;2022-09-09T08:26:23;5.32;;;2.97;;
73266;SDS011;61495;53.400;7.608;2022-09-09T08:28:50;5.72;;;2.92;;
73266;SDS011;61495;53.400;7.608;2022-09-09T08:31:21;6.57;;;3.05;;
73266;SDS011;61495;53.400;7.608;2022-09-09T08:33:48;5.35;;;2.92;;
73266;SDS011;61495;53.400;7.608;2022-09-09T08:36:15;6.20;;;3.40;;
73266;SDS011;61495;53.400;7.608;2022-09-09T08:38:42;8.93;;;4.13;;
73266;SDS011;61495;53.400;7.608;2022-09-09T08:58:28;10.20;;;4.82;;
73266;SDS011;61495;53.400;7.608;2022-09-09T09:03:53;7.38;;;5.45;;
73266;SDS011;61495;53.400;7.608;2022-09-09T09:09:04;7.05;;;4.95;;
73266;SDS011;61495;53.400;7.608;2022-09-09T09:11:47;7.57;;;5.07;;
73266;SDS011;61495;53.400;7.608;2022-09-09T09:14:25;8.02;;;5.15;;
73266;SDS011;61495;53.400;7.608;2022-09-09T09:19:29;6.70;;;4.22;;
73266;SDS011;61495;53.400;7.608;2022-09-09T09:28:03;6.43;;;3.53;;
73266;SDS011;61495;53.400;7.608;2022-09-09T09:33:24;8.10;;;2.78;;
73266;SDS011;61495;53.400;7.608;2022-09-09T09:35:55;3.90;;;2.33;;
73266;SDS011;61495;53.400;7.608;2022-09-09T09:38:22;4.85;;;2.50;;
73266;SDS011;61495;53.400;7.608;2022-09-09T09:40:53;8.10;;;2.42;;
73266;SDS011;61495;53.400;7.608;2022-09-09T09:43:30;4.32;;;2.85;;
73266;SDS011;61495;53.400;7.608;2022-09-09T09:45:57;4.70;;;2.85;;
73266;SDS011;61495;53.400;7.608;2022-09-09T09:48:23;6.05;;;2.63;;
73266;SDS011;61495;53.400;7.608;2022-09-09T09:53:23;5.25;;;2.55;;
73266;SDS011;61495;53.400;7.608;2022-09-09T09:56:01;7.10;;;2.15;;
73266;SDS011;61495;53.400;7.608;2022-09-09T09:58:32;6.13;;;2.40;;
73266;SDS011;61495;53.400;7.608;2022-09-09T10:01:02;5.50;;;2.00;;
73266;SDS011;61495;53.400;7.608;2022-09-09T10:03:31;5.50;;;2.00;;
73266;SDS011;61495;53.400;7.608;2022-09-09T10:06:02;5.15;;;2.25;;
73266;SDS011;61495;53.400;7.608;2022-09-09T10:08:29;7.30;;;2.70;;
73266;SDS011;61495;53.400;7.608;2022-09-09T10:18:59;5.38;;;2.38;;
73266;SDS011;61495;53.400;7.608;2022-09-09T10:26:59;4.60;;;2.45;;
73266;SDS011;61495;53.400;7.608;2022-09-09T10:42:50;5.57;;;2.78;;
73266;SDS011;61495;53.400;7.608;2022-09-09T10:45:23;4.75;;;2.40;;
73266;SDS011;61495;53.400;7.608;2022-09-09T10:48:16;6.20;;;2.95;;
73266;SDS011;61495;53.400;7.608;2022-09-09T10:56:37;6.43;;;3.40;;
73266;SDS011;61495;53.400;7.608;2022-09-09T10:59:11;5.32;;;3.50;;
73266;SDS011;61495;53.400;7.608;2022-09-09T11:01:49;4.80;;;2.95;;
73266;SDS011;61495;53.400;7.608;2022-09-09T11:04:22;5.60;;;3.10;;
73266;SDS011;61495;53.400;7.608;2022-09-09T11:06:54;7.00;;;3.20;;
73266;SDS011;61495;53.400;7.608;2022-09-09T11:09:27;6.00;;;3.30;;
73266;SDS011;61495;53.400;7.608;2022-09-09T11:11:58;5.93;;;3.75;;
73266;SDS011;61495;53.400;7.608;2022-09-09T11:14:38;7.10;;;3.38;;
73266;SDS011;61495;53.400;7.608;2022-09-09T11:17:13;6.15;;;3.20;;
73266;SDS011;61495;53.400;7.608;2022-09-09T11:19:44;9.00;;;3.35;;
73266;SDS011;61495;53.400;7.608;2022-09-09T11:25:17;6.68;;;3.00;;
73266;SDS011;61495;53.400;7.608;2022-09-09T11:30:22;9.55;;;3.17;;
73266;SDS011;61495;53.400;7.608;2022-09-09T11:39:53;5.13;;;3.30;;
73266;SDS011;61495;53.400;7.608;2022-09-09T11:44:36;4.78;;;3.08;;
73266;SDS011;61495;53.400;7.608;2022-09-09T11:47:02;6.53;;;3.42;;
73266;SDS011;61495;53.400;7.608;2022-09-09T11:49:41;5.32;;;4.25;;
73266;SDS011;61495;53.400;7.608;2022-09-09T11:52:11;6.18;;;3.58;;
73266;SDS011;61495;53.400;7.608;2022-09-09T11:54:49;7.68;;;3.38;;
73266;SDS011;61495;53.400;7.608;2022-09-09T12:00:00;6.18;;;3.83;;
73266;SDS011;61495;53.400;7.608;2022-09-09T12:02:28;7.68;;;3.70;;
73266;SDS011;61495;53.400;7.608;2022-09-09T12:05:06;6.88;;;3.60;;
73266;SDS011;61495;53.400;7.608;2022-09-09T12:07:40;6.35;;;3.20;;
73266;SDS011;61495;53.400;7.608;2022-09-09T12:13:18;6.72;;;3.78;;
73266;SDS011;61495;53.400;7.608;2022-09-09T12:15:52;6.20;;;4.43;;
73266;SDS011;61495;53.400;7.608;2022-09-09T12:18:31;8.38;;;3.20;;
73266;SDS011;61495;53.400;7.608;2022-09-09T12:23:40;6.28;;;2.40;;
73266;SDS011;61495;53.400;7.608;2022-09-09T12:29:23;4.53;;;1.60;;
73266;SDS011;61495;53.400;7.608;2022-09-09T12:34:30;4.82;;;1.40;;
73266;SDS011;61495;53.400;7.608;2022-09-09T12:37:15;4.22;;;1.40;;
73266;SDS011;61495;53.400;7.608;2022-09-09T12:39:59;4.78;;;1.00;;
73266;SDS011;61495;53.400;7.608;2022-09-09T12:42:27;3.38;;;1.38;;
73266;SDS011;61495;53.400;7.608;2022-09-09T12:44:57;3.75;;;1.10;;
73266;SDS011;61495;53.400;7.608;2022-09-09T12:50:16;5.47;;;1.52;;
73266;SDS011;61495;53.400;7.608;2022-09-09T12:52:46;5.35;;;1.40;;
73266;SDS011;61495;53.400;7.608;2022-09-09T12:55:16;4.88;;;1.02;;
73266;SDS011;61495;53.400;7.608;2022-09-09T12:57:46;5.05;;;1.38;;
73266;SDS011;61495;53.400;7.608;2022-09-09T13:02:48;6.78;;;1.50;;
73266;SDS011;61495;53.400;7.608;2022-09-09T13:05:19;5.85;;;1.30;;
73266;SDS011;61495;53.400;7.608;2022-09-09T13:07:48;5.97;;;1.42;;
73266;SDS011;61495;53.400;7.608;2022-09-09T13:10:15;9.88;;;2.83;;
73266;SDS011;61495;53.400;7.608;2022-09-09T13:12:47;13.18;;;2.90;;
73266;SDS011;61495;53.400;7.608;2022-09-09T13:15:16;9.57;;;2.45;;
73266;SDS011;61495;53.400;7.608;2022-09-09T13:17:51;4.50;;;1.05;;
73266;SDS011;61495;53.400;7.608;2022-09-09T13:20:18;2.72;;;0.90;;
73266;SDS011;61495;53.400;7.608;2022-09-09T13:22:45;4.00;;;1.40;;
73266;SDS011;61495;53.400;7.608;2022-09-09T13:27:56;5.28;;;1.45;;
73266;SDS011;61495;53.400;7.608;2022-09-09T13:30:32;4.40;;;1.13;;
73266;SDS011;61495;53.400;7.608;2022-09-09T13:33:02;5.00;;;1.30;;
73266;SDS011;61495;53.400;7.608;2022-09-09T13:35:34;4.68;;;1.40;;
73266;SDS011;61495;53.400;7.608;2022-09-09T13:38:12;5.97;;;1.83;;
73266;SDS011;61495;53.400;7.608;2022-09-09T13:40:39;6.18;;;2.10;;
73266;SDS011;61495;53.400;7.608;2022-09-09T13:43:05;7.15;;;1.83;;
73266;SDS011;61495;53.400;7.608;2022-09-09T13:45:40;4.93;;;1.60;;
73266;SDS011;61495;53.400;7.608;2022-09-09T13:48:09;7.10;;;2.00;;
73266;SDS011;61495;53.400;7.608;2022-09-09T13:50:35;6.70;;;2.42;;
73266;SDS011;61495;53.400;7.608;2022-09-09T13:53:01;6.70;;;2.33;;
73266;SDS011;61495;53.400;7.608;2022-09-09T13:55:27;5.75;;;2.20;;
73266;SDS011;61495;53.400;7.608;2022-09-09T13:57:53;7.28;;;2.80;;
73266;SDS011;61495;53.400;7.608;2022-09-09T14:00:25;8.18;;;2.45;;
73266;SDS011;61495;53.400;7.608;2022-09-09T14:02:51;6.25;;;2.40;;
73266;SDS011;61495;53.400;7.608;2022-09-09T14:05:17;6.10;;;2.47;;
73266;SDS011;61495;53.400;7.608;2022-09-09T14:07:43;5.68;;;2.15;;
73266;SDS011;61495;53.400;7.608;2022-09-09T14:10:09;5.50;;;2.22;;
73266;SDS011;61495;53.400;7.608;2022-09-09T14:12:36;4.63;;;1.95;;
73266;SDS011;61495;53.400;7.608;2022-09-09T14:15:02;4.75;;;1.80;;
73266;SDS011;61495;53.400;7.608;2022-09-09T14:17:28;6.28;;;1.67;;
73266;SDS011;61495;53.400;7.608;2022-09-09T14:19:55;5.03;;;2.00;;
73266;SDS011;61495;53.400;7.608;2022-09-09T14:22:21;5.07;;;2.40;;
73266;SDS011;61495;53.400;7.608;2022-09-09T14:24:47;5.90;;;2.20;;
73266;SDS011;61495;53.400;7.608;2022-09-09T14:27:12;4.45;;;2.17;;
73266;SDS011;61495;53.400;7.608;2022-09-09T14:29:37;4.15;;;2.42;;
73266;SDS011;61495;53.400;7.608;2022-09-09T14:32:03;5.47;;;2.58;;
73266;SDS011;61495;53.400;7.608;2022-09-09T14:34:28;4.80;;;2.10;;
73266;SDS011;61495;53.400;7.608;2022-09-09T14:36:54;6.43;;;2.72;;
73266;SDS011;61495;53.400;7.608;2022-09-09T14:39:19;6.15;;;2.65;;
73266;SDS011;61495;53.400;7.608;2022-09-09T14:41:44;5.38;;;2.45;;
73266;SDS011;61495;53.400;7.608;2022-09-09T14:44:10;6.97;;;2.88;;
73266;SDS011;61495;53.400;7.608;2022-09-09T14:46:36;7.10;;;3.15;;
73266;SDS011;61495;53.400;7.608;2022-09-09T14:49:01;8.02;;;3.28;;
73266;SDS011;61495;53.400;7.608;2022-09-09T14:51:27;6.28;;;3.22;;
73266;SDS011;61495;53.400;7.608;2022-09-09T14:53:56;5.93;;;2.78;;
73266;SDS011;61495;53.400;7.608;2022-09-09T14:56:24;5.43;;;2.63;;
73266;SDS011;61495;53.400;7.608;2022-09-09T14:58:55;5.25;;;3.22;;
73266;SDS011;61495;53.400;7.608;2022-09-09T15:01:21;5.40;;;3.03;;
73266;SDS011;61495;53.400;7.608;2022-09-09T15:03:54;5.28;;;2.90;;
73266;SDS011;61495;53.400;7.608;2022-09-09T15:06:24;7.38;;;2.95;;
73266;SDS011;61495;53.400;7.608;2022-09-09T15:08:54;5.15;;;2.85;;
73266;SDS011;61495;53.400;7.608;2022-09-09T15:11:22;5.20;;;2.80;;
73266;SDS011;61495;53.400;7.608;2022-09-09T15:13:50;6.80;;;2.90;;
73266;SDS011;61495;53.400;7.608;2022-09-09T15:16:18;6.00;;;3.05;;
73266;SDS011;61495;53.400;7.608;2022-09-09T15:35:34;7.97;;;2.58;;
73266;SDS011;61495;53.400;7.608;2022-09-09T15:38:01;7.45;;;2.38;;
73266;SDS011;61495;53.400;7.608;2022-09-09T15:40:28;5.13;;;1.88;;
73266;SDS011;61495;53.400;7.608;2022-09-09T15:42:53;3.90;;;1.55;;
73266;SDS011;61495;53.400;7.608;2022-09-09T15:45:18;4.10;;;1.55;;
73266;SDS011;61495;53.400;7.608;2022-09-09T15:47:46;3.58;;;1.48;;
73266;SDS011;61495;53.400;7.608;2022-09-09T15:50:12;4.60;;;1.92;;
73266;SDS011;61495;53.400;7.608;2022-09-09T15:52:37;4.57;;;1.58;;
73266;SDS011;61495;53.400;7.608;2022-09-09T15:55:03;3.25;;;1.58;;
73266;SDS011;61495;53.400;7.608;2022-09-09T15:57:29;4.95;;;1.45;;
73266;SDS011;61495;53.400;7.608;2022-09-09T15:59:54;3.95;;;1.20;;
73266;SDS011;61495;53.400;7.608;2022-09-09T16:02:19;3.97;;;1.13;;
73266;SDS011;61495;53.400;7.608;2022-09-09T16:04:45;2.13;;;0.95;;
73266;SDS011;61495;53.400;7.608;2022-09-09T16:07:10;1.73;;;0.80;;
73266;SDS011;61495;53.400;7.608;2022-09-09T16:09:36;1.55;;;0.73;;
73266;SDS011;61495;53.400;7.608;2022-09-09T16:12:02;1.83;;;0.75;;
73266;SDS011;61495;53.400;7.608;2022-09-09T16:14:32;2.20;;;0.77;;
73266;SDS011;61495;53.400;7.608;2022-09-09T16:17:00;4.90;;;1.20;;
73266;SDS011;61495;53.400;7.608;2022-09-09T16:19:27;4.45;;;1.30;;
73266;SDS011;61495;53.400;7.608;2022-09-09T16:21:53;2.50;;;1.30;;
73266;SDS011;61495;53.400;7.608;2022-09-09T16:24:19;3.25;;;1.70;;
73266;SDS011;61495;53.400;7.608;2022-09-09T16:26:48;4.03;;;2.30;;
73266;SDS011;61495;53.400;7.608;2022-09-09T16:29:18;4.07;;;2.10;;
73266;SDS011;61495;53.400;7.608;2022-09-09T16:31:45;3.42;;;2.00;;
73266;SDS011;61495;53.400;7.608;2022-09-09T16:34:12;3.95;;;1.92;;
73266;SDS011;61495;53.400;7.608;2022-09-09T16:36:38;3.63;;;2.00;;
73266;SDS011;61495;53.400;7.608;2022-09-09T16:39:07;3.70;;;2.13;;
73266;SDS011;61495;53.400;7.608;2022-09-09T16:44:03;4.07;;;2.00;;
73266;SDS011;61495;53.400;7.608;2022-09-09T16:46:32;4.45;;;2.20;;
73266;SDS011;61495;53.400;7.608;2022-09-09T16:49:00;4.63;;;2.60;;
73266;SDS011;61495;53.400;7.608;2022-09-09T16:51:28;5.18;;;2.60;;
73266;SDS011;61495;53.400;7.608;2022-09-09T16:53:57;5.47;;;2.85;;
73266;SDS011;61495;53.400;7.608;2022-09-09T16:56:24;5.57;;;3.38;;
73266;SDS011;61495;53.400;7.608;2022-09-09T16:58:52;7.82;;;3.92;;
73266;SDS011;61495;53.400;7.608;2022-09-09T17:01:22;6.35;;;4.10;;
73266;SDS011;61495;53.400;7.608;2022-09-09T17:03:52;6.43;;;3.92;;
73266;SDS011;61495;53.400;7.608;2022-09-09T17:06:24;7.05;;;3.38;;
73266;SDS011;61495;53.400;7.608;2022-09-09T17:08:54;8.32;;;3.80;;
73266;SDS011;61495;53.400;7.608;2022-09-09T17:11:23;5.50;;;3.95;;
73266;SDS011;61495;53.400;7.608;2022-09-09T17:13:50;5.97;;;3.70;;
73266;SDS011;61495;53.400;7.608;2022-09-09T17:16:17;7.63;;;3.97;;
73266;SDS011;61495;53.400;7.608;2022-09-09T17:18:46;5.93;;;3.53;;
73266;SDS011;61495;53.400;7.608;2022-09-09T17:21:13;5.80;;;4.28;;
73266;SDS011;61495;53.400;7.608;2022-09-09T17:23:40;6.35;;;4.00;;
73266;SDS011;61495;53.400;7.608;2022-09-09T17:26:07;7.35;;;4.78;;
73266;SDS011;61495;53.400;7.608;2022-09-09T17:28:34;5.60;;;4.13;;
73266;SDS011;61495;53.400;7.608;2022-09-09T17:31:01;6.13;;;3.92;;
73266;SDS011;61495;53.400;7.608;2022-09-09T17:33:29;5.70;;;4.40;;
73266;SDS011;61495;53.400;7.608;2022-09-09T17:35:58;5.53;;;3.97;;
73266;SDS011;61495;53.400;7.608;2022-09-09T17:38:31;8.85;;;4.18;;
73266;SDS011;61495;53.400;7.608;2022-09-09T17:41:02;6.63;;;4.05;;
73266;SDS011;61495;53.400;7.608;2022-09-09T17:43:37;4.95;;;3.40;;
73266;SDS011;61495;53.400;7.608;2022-09-09T17:46:11;6.35;;;3.53;;
73266;SDS011;61495;53.400;7.608;2022-09-09T17:48:41;5.53;;;3.67;;
73266;SDS011;61495;53.400;7.608;2022-09-09T17:51:08;8.73;;;3.80;;
73266;SDS011;61495;53.400;7.608;2022-09-09T17:53:39;6.78;;;3.58;;
73266;SDS011;61495;53.400;7.608;2022-09-09T17:56:09;7.25;;;3.42;;
73266;SDS011;61495;53.400;7.608;2022-09-09T17:58:35;6.93;;;3.80;;
73266;SDS011;61495;53.400;7.608;2022-09-09T18:01:02;7.95;;;3.75;;
73266;SDS011;61495;53.400;7.608;2022-09-09T18:03:34;6.25;;;3.88;;
73266;SDS011;61495;53.400;7.608;2022-09-09T18:06:01;7.68;;;4.72;;